createdAt,value
2023-01-04T00:01:00.089Z,88.91
2023-01-04T00:06:06.779Z,89.22
2023-01-04T00:11:15.000Z,89.10
2023-01-04T00:16:21.172Z,89.30
2023-01-04T00:21:25.053Z,89.16
2023-01-04T00:26:30.294Z,89.16
2023-01-04T00:31:34.783Z,89.15
2023-01-04T00:36:37.517Z,89.04
2023-01-04T00:42:02.016Z,89.05
2023-01-04T00:47:05.208Z,89.00
2023-01-04T00:52:08.308Z,89.53
2023-01-04T00:57:10.962Z,89.67
2023-01-04T01:02:13.847Z,89.45
2023-01-04T01:07:16.594Z,90.43
2023-01-04T01:12:19.270Z,90.62
2023-01-04T01:17:21.936Z,91.08
2023-01-04T01:22:24.598Z,91.69
2023-01-04T01:27:28.751Z,91.96
2023-01-04T01:32:31.402Z,91.94
2023-01-04T01:37:34.019Z,92.20
2023-01-04T01:42:36.689Z,92.56
2023-01-04T01:47:45.031Z,92.76
2023-01-04T01:52:48.596Z,92.45
2023-01-04T01:57:53.768Z,91.92
2023-01-04T02:03:01.399Z,91.42
2023-01-04T02:08:06.228Z,91.03
2023-01-04T02:13:14.693Z,90.85
2023-01-04T02:18:25.354Z,90.78
2023-01-04T02:23:34.924Z,91.01
2023-01-04T02:28:39.543Z,91.10
2023-01-04T02:33:45.209Z,91.19
2023-01-04T02:38:58.272Z,91.53
2023-01-04T02:44:04.774Z,92.01
2023-01-04T02:49:10.418Z,92.45
2023-01-04T02:54:20.183Z,92.41
2023-01-04T02:59:45.935Z,92.32
2023-01-04T03:04:55.501Z,92.78
2023-01-04T03:10:21.214Z,92.72
2023-01-04T03:15:26.484Z,92.40
2023-01-04T03:20:31.390Z,92.64
2023-01-04T03:25:45.240Z,92.79
2023-01-04T03:31:22.337Z,92.68
2023-01-04T03:36:32.434Z,92.77
2023-01-04T03:41:40.404Z,93.20
2023-01-04T03:46:52.581Z,93.14
2023-01-04T03:51:58.809Z,93.56
2023-01-04T03:57:02.741Z,93.47
2023-01-04T04:02:08.241Z,93.59
2023-01-04T04:07:13.861Z,93.49
2023-01-04T04:12:16.537Z,93.77
2023-01-04T04:17:19.166Z,94.10
2023-01-04T04:22:21.796Z,94.39
2023-01-04T04:27:24.615Z,94.66
2023-01-04T04:32:27.298Z,95.03
2023-01-04T04:37:32.001Z,95.46
2023-01-04T04:42:34.843Z,95.77
2023-01-04T04:47:37.517Z,95.76
2023-01-04T04:52:41.546Z,95.86
2023-01-04T04:57:44.228Z,95.97
2023-01-04T05:02:46.965Z,95.88
2023-01-04T05:07:49.657Z,95.77
2023-01-04T05:12:57.934Z,95.96
2023-01-04T05:18:01.615Z,95.62
2023-01-04T05:23:04.988Z,95.60
2023-01-04T05:28:09.137Z,95.47
2023-01-04T05:33:12.513Z,95.51
2023-01-04T05:38:16.212Z,95.52
2023-01-04T05:43:20.477Z,95.11
2023-01-04T05:48:24.722Z,95.36
2023-01-04T05:53:27.362Z,95.24
2023-01-04T05:58:30.156Z,95.05
2023-01-04T06:03:32.949Z,94.91
2023-01-04T06:08:35.662Z,95.13
2023-01-04T06:13:38.273Z,95.07
2023-01-04T06:18:40.909Z,95.00
2023-01-04T06:23:43.550Z,94.89
2023-01-04T06:28:46.185Z,95.18
2023-01-04T06:33:48.923Z,95.33
2023-01-04T06:38:52.591Z,95.07
2023-01-04T07:31:23.827Z,93.18
2023-01-04T07:36:25.934Z,93.19
2023-01-04T07:41:28.572Z,93.18
2023-01-04T07:46:32.111Z,93.31
2023-01-04T07:51:34.789Z,93.48
2023-01-04T07:56:37.718Z,93.68
2023-01-04T08:01:41.134Z,93.55
2023-01-04T08:06:46.611Z,93.01
2023-01-04T08:11:49.677Z,93.44
2023-01-04T08:16:53.035Z,93.54
2023-01-04T08:51:54.342Z,91.39
2023-01-04T09:12:53.848Z,91.57
2023-01-04T09:18:30.727Z,91.02
2023-01-04T09:23:21.793Z,90.13
2023-01-04T09:28:26.999Z,89.66
2023-01-04T09:34:03.560Z,89.35
2023-01-04T09:38:52.936Z,88.93
2023-01-04T09:44:04.308Z,88.62
2023-01-04T09:49:24.367Z,88.05
2023-01-04T09:54:35.175Z,87.59
2023-01-04T09:59:39.042Z,87.52
2023-01-04T10:04:44.617Z,86.95
2023-01-04T10:09:47.382Z,86.66
2023-01-04T10:14:50.000Z,86.38
2023-01-04T10:25:29.483Z,86.44
2023-01-04T10:30:36.158Z,86.41
2023-01-04T10:35:41.004Z,85.71
2023-01-04T10:40:47.331Z,85.76
2023-01-04T10:45:57.084Z,85.58
2023-01-04T10:51:09.308Z,85.58
2023-01-04T10:56:25.430Z,85.34
2023-01-04T11:01:35.236Z,85.44
2023-01-04T11:06:44.850Z,85.49
2023-01-04T11:11:48.463Z,85.73
2023-01-04T11:16:56.539Z,84.74
2023-01-04T11:22:05.961Z,82.92
2023-01-04T11:27:16.020Z,82.84
2023-01-04T11:32:35.379Z,82.73
2023-01-04T11:37:40.271Z,83.10
2023-01-04T11:42:49.361Z,82.76
2023-01-04T11:47:57.063Z,82.41
2023-01-04T11:52:59.772Z,82.67
2023-01-04T11:58:07.016Z,82.38
2023-01-04T12:03:14.128Z,82.47
2023-01-04T12:08:29.340Z,82.58
2023-01-04T12:13:34.238Z,82.73
2023-01-04T12:18:41.800Z,82.77
2023-01-04T12:23:44.655Z,82.76
2023-01-04T12:28:50.333Z,83.02
2023-01-04T12:33:57.317Z,82.74
2023-01-04T12:39:22.778Z,82.91
2023-01-04T12:44:31.254Z,82.93
2023-01-04T12:49:39.719Z,82.48
2023-01-04T12:54:47.597Z,82.53
2023-01-04T12:59:54.516Z,82.22
2023-01-04T13:05:53.488Z,81.60
2023-01-04T13:10:31.358Z,80.53
2023-01-04T13:15:39.793Z,79.62
2023-01-04T13:20:42.772Z,78.96
2023-01-04T13:25:45.519Z,79.40
2023-01-04T13:30:48.328Z,79.18
2023-01-04T13:35:56.795Z,79.53
2023-01-04T13:40:59.520Z,80.77
2023-01-04T13:46:17.044Z,81.84
2023-01-04T13:51:22.573Z,82.59
2023-01-04T13:56:28.102Z,83.32
2023-01-04T14:01:35.558Z,83.69
2023-01-04T14:06:44.659Z,83.99
2023-01-04T14:11:54.098Z,84.71
2023-01-04T14:17:02.520Z,85.38
2023-01-04T14:22:11.184Z,86.09
2023-01-04T14:27:19.587Z,86.86
2023-01-04T14:32:22.464Z,86.86
2023-01-04T14:37:25.176Z,87.10
2023-01-04T14:42:31.091Z,87.25
2023-01-04T14:47:33.689Z,87.90
2023-01-04T14:53:02.369Z,88.07
2023-01-04T14:58:04.992Z,88.38
2023-01-04T15:03:09.665Z,88.52
2023-01-04T15:08:13.318Z,88.67
2023-01-04T15:13:16.281Z,88.63
2023-01-04T15:18:18.995Z,88.64
2023-01-04T15:23:21.654Z,89.01
2023-01-04T15:28:26.232Z,89.44
2023-01-04T15:33:32.094Z,90.34
2023-01-04T15:38:35.166Z,90.73
2023-01-04T15:43:38.263Z,91.25
2023-01-04T15:48:40.889Z,91.86
2023-01-04T15:53:43.652Z,92.44
2023-01-04T15:58:46.842Z,93.27
2023-01-04T16:03:53.392Z,93.40
2023-01-04T16:08:58.772Z,94.11
2023-01-04T16:14:02.086Z,94.76
2023-01-04T16:19:05.744Z,95.19
2023-01-04T16:24:29.519Z,95.40
2023-01-04T16:29:32.757Z,96.00
2023-01-04T16:34:36.418Z,96.55
2023-01-04T16:45:01.754Z,97.15
2023-01-04T16:50:04.871Z,97.45
2023-01-04T16:55:08.658Z,98.06
2023-01-04T17:00:11.751Z,98.05
2023-01-04T17:05:14.558Z,98.59
2023-01-04T17:10:17.348Z,98.81
2023-01-04T17:20:42.686Z,99.93
2023-01-04T17:25:45.369Z,100.00
2023-01-04T17:30:48.973Z,100.00
2023-01-04T17:35:51.680Z,100.00
2023-01-04T17:42:09.995Z,100.00
2023-01-04T17:47:12.623Z,100.00
2023-01-04T17:52:22.223Z,100.00
2023-01-04T17:57:29.738Z,100.00
2023-01-04T18:02:33.478Z,100.00
2023-01-04T18:07:36.346Z,100.00
2023-01-04T18:12:39.041Z,100.00
2023-01-04T18:17:41.693Z,100.00
2023-01-04T18:22:44.483Z,100.00
2023-01-04T18:27:47.123Z,100.00
2023-01-04T18:32:49.783Z,100.00
2023-01-04T18:37:52.422Z,100.00
2023-01-04T18:42:55.085Z,100.00
2023-01-04T18:47:57.779Z,100.00
2023-01-04T18:53:00.515Z,100.00
2023-01-04T18:58:03.362Z,100.00
2023-01-04T19:03:06.147Z,100.00
2023-01-04T19:08:08.913Z,100.00
2023-01-04T19:13:11.557Z,100.00
2023-01-04T19:18:14.206Z,100.00
2023-01-04T19:23:17.235Z,100.00
2023-01-04T19:28:19.951Z,100.00
2023-01-04T19:33:22.599Z,100.00
2023-01-04T19:38:25.283Z,100.00
2023-01-04T19:43:28.059Z,100.00
2023-01-04T19:48:31.063Z,100.00
2023-01-04T19:53:33.886Z,100.00
2023-01-04T19:58:37.632Z,100.00
2023-01-04T20:03:41.924Z,100.00
2023-01-04T20:08:44.740Z,100.00
2023-01-04T20:13:47.404Z,100.00
2023-01-04T20:18:50.027Z,100.00
2023-01-04T20:23:52.770Z,100.00
2023-01-04T20:28:55.684Z,100.00
2023-01-04T20:33:58.419Z,100.00
2023-01-04T20:39:02.443Z,100.00
2023-01-04T20:44:05.230Z,100.00
2023-01-04T20:49:08.430Z,100.00
2023-01-04T20:54:11.116Z,100.00
2023-01-04T20:59:14.164Z,100.00
2023-01-04T21:04:17.665Z,100.00
2023-01-04T21:09:20.368Z,100.00
2023-01-04T21:14:24.651Z,100.00
2023-01-04T21:19:27.287Z,100.00
2023-01-04T21:24:33.373Z,100.00
2023-01-04T21:29:35.925Z,100.00
2023-01-04T21:34:38.461Z,100.00
2023-01-04T21:39:40.959Z,100.00
2023-01-04T21:44:43.635Z,100.00
2023-01-04T21:49:46.304Z,100.00
2023-01-04T21:54:49.001Z,100.00
2023-01-04T21:59:51.909Z,100.00
2023-01-04T22:04:54.639Z,100.00
2023-01-04T22:09:57.939Z,100.00
2023-01-04T22:15:00.792Z,100.00
2023-01-04T22:20:03.731Z,100.00
2023-01-04T22:25:06.609Z,100.00
2023-01-04T22:30:09.827Z,100.00
2023-01-04T22:35:12.538Z,100.00
2023-01-04T22:40:15.583Z,100.00
2023-01-04T22:45:18.298Z,100.00
2023-01-04T22:50:20.997Z,100.00
2023-01-04T22:55:23.796Z,100.00
2023-01-04T23:00:26.484Z,100.00
2023-01-04T23:05:29.863Z,100.00
2023-01-04T23:10:32.866Z,100.00
2023-01-04T23:15:38.420Z,100.00
2023-01-04T23:21:18.378Z,100.00
2023-01-04T23:26:23.101Z,100.00
2023-01-04T23:31:28.431Z,100.00
2023-01-04T23:36:36.960Z,100.00
2023-01-04T23:41:42.589Z,100.00
2023-01-04T23:46:46.173Z,100.00
2023-01-04T23:51:49.215Z,100.00
2023-01-04T23:56:51.948Z,100.00
